sensor_id;sensor_type;location;lat;lon;timestamp;P1;durP1;ratioP1;P2;durP2;ratioP2
48871;SDS011;36154;51.674;7.824;2023-12-07T00:01:35;1.20;;;1.20;;
48871;SDS011;36154;51.674;7.824;2023-12-07T00:04:02;1.58;;;1.48;;
48871;SDS011;36154;51.674;7.824;2023-12-07T00:06:27;1.33;;;1.23;;
48871;SDS011;36154;51.674;7.824;2023-12-07T00:08:53;1.33;;;1.25;;
48871;SDS011;36154;51.674;7.824;2023-12-07T00:11:18;1.50;;;1.40;;
48871;SDS011;36154;51.674;7.824;2023-12-07T00:13:43;1.50;;;1.40;;
48871;SDS011;36154;51.674;7.824;2023-12-07T00:16:09;1.08;;;1.08;;
48871;SDS011;36154;51.674;7.824;2023-12-07T00:18:34;1.42;;;1.33;;
48871;SDS011;36154;51.674;7.824;2023-12-07T00:21:00;1.53;;;1.43;;
48871;SDS011;36154;51.674;7.824;2023-12-07T00:23:26;1.23;;;1.23;;
48871;SDS011;36154;51.674;7.824;2023-12-07T00:25:51;1.05;;;1.05;;
48871;SDS011;36154;51.674;7.824;2023-12-07T00:28:16;1.20;;;1.20;;
48871;SDS011;36154;51.674;7.824;2023-12-07T00:30:41;1.52;;;1.42;;
48871;SDS011;36154;51.674;7.824;2023-12-07T00:33:07;1.58;;;1.48;;
48871;SDS011;36154;51.674;7.824;2023-12-07T00:35:34;1.50;;;1.40;;
48871;SDS011;36154;51.674;7.824;2023-12-07T00:37:59;1.33;;;1.17;;
48871;SDS011;36154;51.674;7.824;2023-12-07T00:40:25;1.20;;;1.20;;
48871;SDS011;36154;51.674;7.824;2023-12-07T00:42:50;1.98;;;1.60;;
48871;SDS011;36154;51.674;7.824;2023-12-07T00:45:15;1.70;;;1.60;;
48871;SDS011;36154;51.674;7.824;2023-12-07T00:47:41;1.63;;;1.52;;
48871;SDS011;36154;51.674;7.824;2023-12-07T00:50:07;1.65;;;1.55;;
48871;SDS011;36154;51.674;7.824;2023-12-07T00:52:33;1.52;;;1.52;;
48871;SDS011;36154;51.674;7.824;2023-12-07T00:54:58;1.50;;;1.40;;
48871;SDS011;36154;51.674;7.824;2023-12-07T00:57:23;1.48;;;1.38;;
48871;SDS011;36154;51.674;7.824;2023-12-07T00:59:48;1.63;;;1.52;;
48871;SDS011;36154;51.674;7.824;2023-12-07T01:02:14;1.50;;;1.45;;
48871;SDS011;36154;51.674;7.824;2023-12-07T01:04:39;1.30;;;1.30;;
48871;SDS011;36154;51.674;7.824;2023-12-07T01:07:04;1.40;;;1.30;;
48871;SDS011;36154;51.674;7.824;2023-12-07T01:09:29;1.38;;;1.20;;
48871;SDS011;36154;51.674;7.824;2023-12-07T01:11:55;1.17;;;1.15;;
48871;SDS011;36154;51.674;7.824;2023-12-07T01:14:20;1.70;;;1.60;;
48871;SDS011;36154;51.674;7.824;2023-12-07T01:16:45;1.63;;;1.52;;
48871;SDS011;36154;51.674;7.824;2023-12-07T01:19:11;1.70;;;1.60;;
48871;SDS011;36154;51.674;7.824;2023-12-07T01:21:39;1.70;;;1.60;;
48871;SDS011;36154;51.674;7.824;2023-12-07T01:24:05;1.10;;;1.10;;
48871;SDS011;36154;51.674;7.824;2023-12-07T01:26:30;1.70;;;1.60;;
48871;SDS011;36154;51.674;7.824;2023-12-07T01:28:55;1.45;;;1.35;;
48871;SDS011;36154;51.674;7.824;2023-12-07T01:31:21;1.50;;;1.40;;
48871;SDS011;36154;51.674;7.824;2023-12-07T01:33:46;1.33;;;1.30;;
48871;SDS011;36154;51.674;7.824;2023-12-07T01:36:14;1.67;;;1.50;;
48871;SDS011;36154;51.674;7.824;2023-12-07T01:38:39;1.40;;;1.30;;
48871;SDS011;36154;51.674;7.824;2023-12-07T01:41:04;1.30;;;1.25;;
48871;SDS011;36154;51.674;7.824;2023-12-07T01:43:30;1.70;;;1.60;;
48871;SDS011;36154;51.674;7.824;2023-12-07T01:45:56;1.60;;;1.50;;
48871;SDS011;36154;51.674;7.824;2023-12-07T01:48:24;1.50;;;1.40;;
48871;SDS011;36154;51.674;7.824;2023-12-07T01:50:51;1.23;;;1.23;;
48871;SDS011;36154;51.674;7.824;2023-12-07T01:53:18;2.55;;;1.25;;
48871;SDS011;36154;51.674;7.824;2023-12-07T01:55:46;1.08;;;1.08;;
48871;SDS011;36154;51.674;7.824;2023-12-07T01:58:12;1.20;;;1.20;;
48871;SDS011;36154;51.674;7.824;2023-12-07T02:00:37;1.95;;;1.30;;
48871;SDS011;36154;51.674;7.824;2023-12-07T02:03:04;1.40;;;1.30;;
48871;SDS011;36154;51.674;7.824;2023-12-07T02:05:30;1.40;;;1.40;;
48871;SDS011;36154;51.674;7.824;2023-12-07T02:07:56;1.13;;;1.08;;
48871;SDS011;36154;51.674;7.824;2023-12-07T02:10:21;1.20;;;1.20;;
48871;SDS011;36154;51.674;7.824;2023-12-07T02:12:47;1.45;;;1.35;;
48871;SDS011;36154;51.674;7.824;2023-12-07T02:15:12;1.00;;;1.00;;
48871;SDS011;36154;51.674;7.824;2023-12-07T02:17:40;1.33;;;1.30;;
48871;SDS011;36154;51.674;7.824;2023-12-07T02:20:29;1.10;;;1.10;;
48871;SDS011;36154;51.674;7.824;2023-12-07T02:23:01;2.05;;;1.30;;
48871;SDS011;36154;51.674;7.824;2023-12-07T02:25:31;1.20;;;1.10;;
48871;SDS011;36154;51.674;7.824;2023-12-07T02:28:01;1.17;;;1.17;;
48871;SDS011;36154;51.674;7.824;2023-12-07T02:30:27;1.48;;;1.38;;
48871;SDS011;36154;51.674;7.824;2023-12-07T02:32:52;1.98;;;1.35;;
48871;SDS011;36154;51.674;7.824;2023-12-07T02:35:17;1.20;;;1.20;;
48871;SDS011;36154;51.674;7.824;2023-12-07T02:37:47;1.73;;;1.63;;
48871;SDS011;36154;51.674;7.824;2023-12-07T02:40:15;1.92;;;1.83;;
48871;SDS011;36154;51.674;7.824;2023-12-07T02:42:42;1.10;;;1.00;;
48871;SDS011;36154;51.674;7.824;2023-12-07T02:45:09;1.58;;;1.40;;
48871;SDS011;36154;51.674;7.824;2023-12-07T02:47:35;1.20;;;1.10;;
48871;SDS011;36154;51.674;7.824;2023-12-07T02:50:01;1.48;;;1.38;;
48871;SDS011;36154;51.674;7.824;2023-12-07T02:52:27;1.50;;;1.40;;
48871;SDS011;36154;51.674;7.824;2023-12-07T02:54:52;1.90;;;1.80;;
48871;SDS011;36154;51.674;7.824;2023-12-07T02:57:17;2.10;;;2.00;;
48871;SDS011;36154;51.674;7.824;2023-12-07T02:59:42;1.73;;;1.63;;
48871;SDS011;36154;51.674;7.824;2023-12-07T03:02:08;2.05;;;1.95;;
48871;SDS011;36154;51.674;7.824;2023-12-07T03:04:33;1.52;;;1.48;;
48871;SDS011;36154;51.674;7.824;2023-12-07T03:06:58;1.93;;;1.83;;
48871;SDS011;36154;51.674;7.824;2023-12-07T03:09:24;1.83;;;1.73;;
48871;SDS011;36154;51.674;7.824;2023-12-07T03:11:49;1.92;;;1.48;;
48871;SDS011;36154;51.674;7.824;2023-12-07T03:14:15;1.77;;;1.67;;
48871;SDS011;36154;51.674;7.824;2023-12-07T03:16:40;1.42;;;1.40;;
48871;SDS011;36154;51.674;7.824;2023-12-07T03:19:05;1.42;;;1.40;;
48871;SDS011;36154;51.674;7.824;2023-12-07T03:21:31;2.22;;;2.03;;
48871;SDS011;36154;51.674;7.824;2023-12-07T03:23:56;2.25;;;2.15;;
48871;SDS011;36154;51.674;7.824;2023-12-07T03:26:21;2.00;;;1.90;;
48871;SDS011;36154;51.674;7.824;2023-12-07T03:28:47;1.80;;;1.70;;
48871;SDS011;36154;51.674;7.824;2023-12-07T03:31:12;2.83;;;2.63;;
48871;SDS011;36154;51.674;7.824;2023-12-07T03:33:37;2.05;;;1.95;;
48871;SDS011;36154;51.674;7.824;2023-12-07T03:36:03;1.50;;;1.40;;
48871;SDS011;36154;51.674;7.824;2023-12-07T03:38:29;2.40;;;2.20;;
48871;SDS011;36154;51.674;7.824;2023-12-07T03:40:54;1.70;;;1.60;;
48871;SDS011;36154;51.674;7.824;2023-12-07T03:43:19;1.90;;;1.80;;
48871;SDS011;36154;51.674;7.824;2023-12-07T03:45:45;1.88;;;1.77;;
48871;SDS011;36154;51.674;7.824;2023-12-07T03:48:11;2.33;;;2.22;;
48871;SDS011;36154;51.674;7.824;2023-12-07T03:50:36;2.15;;;2.05;;
48871;SDS011;36154;51.674;7.824;2023-12-07T03:53:01;2.25;;;2.15;;
48871;SDS011;36154;51.674;7.824;2023-12-07T03:55:27;1.90;;;1.80;;
48871;SDS011;36154;51.674;7.824;2023-12-07T03:57:52;1.88;;;1.77;;
48871;SDS011;36154;51.674;7.824;2023-12-07T04:00:17;1.60;;;1.50;;
48871;SDS011;36154;51.674;7.824;2023-12-07T04:02:43;1.80;;;1.70;;
48871;SDS011;36154;51.674;7.824;2023-12-07T04:05:08;1.88;;;1.77;;
48871;SDS011;36154;51.674;7.824;2023-12-07T04:07:33;1.88;;;1.77;;
48871;SDS011;36154;51.674;7.824;2023-12-07T04:09:59;2.03;;;1.92;;
48871;SDS011;36154;51.674;7.824;2023-12-07T04:12:24;2.15;;;2.05;;
48871;SDS011;36154;51.674;7.824;2023-12-07T04:14:50;2.00;;;1.90;;
48871;SDS011;36154;51.674;7.824;2023-12-07T04:17:16;2.42;;;2.22;;
48871;SDS011;36154;51.674;7.824;2023-12-07T04:19:42;2.08;;;1.98;;
48871;SDS011;36154;51.674;7.824;2023-12-07T04:22:07;1.92;;;1.83;;
48871;SDS011;36154;51.674;7.824;2023-12-07T04:24:32;2.33;;;2.23;;
48871;SDS011;36154;51.674;7.824;2023-12-07T04:26:57;1.95;;;1.85;;
48871;SDS011;36154;51.674;7.824;2023-12-07T04:29:23;1.92;;;1.83;;
48871;SDS011;36154;51.674;7.824;2023-12-07T04:31:48;1.77;;;1.67;;
48871;SDS011;36154;51.674;7.824;2023-12-07T04:34:13;1.93;;;1.83;;
48871;SDS011;36154;51.674;7.824;2023-12-07T04:36:38;1.60;;;1.50;;
48871;SDS011;36154;51.674;7.824;2023-12-07T04:39:04;1.58;;;1.48;;
48871;SDS011;36154;51.674;7.824;2023-12-07T04:41:29;1.40;;;1.30;;
48871;SDS011;36154;51.674;7.824;2023-12-07T04:43:54;1.65;;;1.55;;
48871;SDS011;36154;51.674;7.824;2023-12-07T04:46:19;1.50;;;1.50;;
48871;SDS011;36154;51.674;7.824;2023-12-07T04:48:45;1.75;;;1.65;;
48871;SDS011;36154;51.674;7.824;2023-12-07T04:51:10;1.60;;;1.50;;
48871;SDS011;36154;51.674;7.824;2023-12-07T04:53:36;2.25;;;1.60;;
48871;SDS011;36154;51.674;7.824;2023-12-07T04:56:01;1.80;;;1.70;;
48871;SDS011;36154;51.674;7.824;2023-12-07T04:58:26;1.80;;;1.70;;
48871;SDS011;36154;51.674;7.824;2023-12-07T05:00:52;1.80;;;1.70;;
48871;SDS011;36154;51.674;7.824;2023-12-07T05:03:17;1.90;;;1.80;;
48871;SDS011;36154;51.674;7.824;2023-12-07T05:05:43;1.98;;;1.88;;
48871;SDS011;36154;51.674;7.824;2023-12-07T05:08:08;1.75;;;1.65;;
48871;SDS011;36154;51.674;7.824;2023-12-07T05:10:33;2.00;;;1.90;;
48871;SDS011;36154;51.674;7.824;2023-12-07T05:12:59;2.00;;;1.90;;
48871;SDS011;36154;51.674;7.824;2023-12-07T05:15:24;2.28;;;2.17;;
48871;SDS011;36154;51.674;7.824;2023-12-07T05:17:50;2.58;;;2.47;;
48871;SDS011;36154;51.674;7.824;2023-12-07T05:20:15;2.20;;;2.10;;
48871;SDS011;36154;51.674;7.824;2023-12-07T05:22:40;1.75;;;1.65;;
48871;SDS011;36154;51.674;7.824;2023-12-07T05:25:05;1.92;;;1.83;;
48871;SDS011;36154;51.674;7.824;2023-12-07T05:27:31;2.05;;;1.88;;
48871;SDS011;36154;51.674;7.824;2023-12-07T05:29:56;1.87;;;1.77;;
48871;SDS011;36154;51.674;7.824;2023-12-07T05:32:21;2.35;;;2.25;;
48871;SDS011;36154;51.674;7.824;2023-12-07T05:34:47;2.58;;;2.38;;
48871;SDS011;36154;51.674;7.824;2023-12-07T05:37:12;2.13;;;2.00;;
48871;SDS011;36154;51.674;7.824;2023-12-07T05:39:37;2.30;;;2.20;;
48871;SDS011;36154;51.674;7.824;2023-12-07T05:42:03;2.33;;;2.23;;
48871;SDS011;36154;51.674;7.824;2023-12-07T05:44:29;2.63;;;2.42;;
48871;SDS011;36154;51.674;7.824;2023-12-07T05:46:54;3.03;;;2.78;;
48871;SDS011;36154;51.674;7.824;2023-12-07T05:49:20;2.65;;;2.45;;
48871;SDS011;36154;51.674;7.824;2023-12-07T05:51:47;2.60;;;2.50;;
48871;SDS011;36154;51.674;7.824;2023-12-07T05:54:12;3.28;;;3.08;;
48871;SDS011;36154;51.674;7.824;2023-12-07T05:56:37;2.43;;;2.33;;
48871;SDS011;36154;51.674;7.824;2023-12-07T05:59:03;3.75;;;2.22;;
48871;SDS011;36154;51.674;7.824;2023-12-07T06:01:28;2.83;;;2.63;;
48871;SDS011;36154;51.674;7.824;2023-12-07T06:03:54;2.70;;;2.50;;
48871;SDS011;36154;51.674;7.824;2023-12-07T06:06:19;3.25;;;2.97;;
48871;SDS011;36154;51.674;7.824;2023-12-07T06:08:46;3.53;;;3.25;;
48871;SDS011;36154;51.674;7.824;2023-12-07T06:11:12;3.40;;;3.10;;
48871;SDS011;36154;51.674;7.824;2023-12-07T06:13:37;3.03;;;2.83;;
48871;SDS011;36154;51.674;7.824;2023-12-07T06:16:03;3.28;;;3.03;;
48871;SDS011;36154;51.674;7.824;2023-12-07T06:18:28;3.45;;;3.17;;
48871;SDS011;36154;51.674;7.824;2023-12-07T06:20:53;3.22;;;2.90;;
48871;SDS011;36154;51.674;7.824;2023-12-07T06:23:19;2.50;;;2.03;;
48871;SDS011;36154;51.674;7.824;2023-12-07T06:25:45;2.90;;;2.70;;
48871;SDS011;36154;51.674;7.824;2023-12-07T06:28:10;2.88;;;2.60;;
48871;SDS011;36154;51.674;7.824;2023-12-07T06:30:35;4.80;;;2.60;;
48871;SDS011;36154;51.674;7.824;2023-12-07T06:33:00;2.90;;;2.70;;
48871;SDS011;36154;51.674;7.824;2023-12-07T06:35:26;3.05;;;2.85;;
48871;SDS011;36154;51.674;7.824;2023-12-07T06:37:51;2.67;;;2.47;;
48871;SDS011;36154;51.674;7.824;2023-12-07T06:40:16;2.53;;;2.40;;
48871;SDS011;36154;51.674;7.824;2023-12-07T06:42:42;9.73;;;2.90;;
48871;SDS011;36154;51.674;7.824;2023-12-07T06:45:07;2.77;;;2.60;;
48871;SDS011;36154;51.674;7.824;2023-12-07T06:47:36;2.28;;;2.17;;
48871;SDS011;36154;51.674;7.824;2023-12-07T06:50:03;2.20;;;2.10;;
48871;SDS011;36154;51.674;7.824;2023-12-07T06:52:29;1.77;;;1.67;;
48871;SDS011;36154;51.674;7.824;2023-12-07T06:54:54;1.40;;;1.33;;
48871;SDS011;36154;51.674;7.824;2023-12-07T06:57:20;1.35;;;1.25;;
48871;SDS011;36154;51.674;7.824;2023-12-07T06:59:46;1.25;;;1.25;;
48871;SDS011;36154;51.674;7.824;2023-12-07T07:02:12;1.60;;;1.50;;
48871;SDS011;36154;51.674;7.824;2023-12-07T07:04:37;1.30;;;1.30;;
48871;SDS011;36154;51.674;7.824;2023-12-07T07:07:03;0.97;;;0.97;;
48871;SDS011;36154;51.674;7.824;2023-12-07T07:09:28;0.95;;;0.95;;
48871;SDS011;36154;51.674;7.824;2023-12-07T07:11:53;1.20;;;1.10;;
48871;SDS011;36154;51.674;7.824;2023-12-07T07:14:18;0.82;;;0.82;;
48871;SDS011;36154;51.674;7.824;2023-12-07T07:16:44;0.80;;;0.80;;
48871;SDS011;36154;51.674;7.824;2023-12-07T07:19:10;1.00;;;1.00;;
48871;SDS011;36154;51.674;7.824;2023-12-07T07:21:36;0.80;;;0.80;;
48871;SDS011;36154;51.674;7.824;2023-12-07T07:24:01;1.02;;;1.02;;
48871;SDS011;36154;51.674;7.824;2023-12-07T07:26:26;1.20;;;1.10;;
48871;SDS011;36154;51.674;7.824;2023-12-07T07:28:52;0.70;;;0.70;;
48871;SDS011;36154;51.674;7.824;2023-12-07T07:31:17;0.85;;;0.85;;
48871;SDS011;36154;51.674;7.824;2023-12-07T07:33:43;0.98;;;0.90;;
48871;SDS011;36154;51.674;7.824;2023-12-07T07:36:09;0.98;;;0.98;;
48871;SDS011;36154;51.674;7.824;2023-12-07T07:38:34;0.85;;;0.80;;
48871;SDS011;36154;51.674;7.824;2023-12-07T07:41:00;0.83;;;0.83;;
48871;SDS011;36154;51.674;7.824;2023-12-07T07:43:25;0.63;;;0.63;;
48871;SDS011;36154;51.674;7.824;2023-12-07T07:45:50;0.90;;;0.90;;
48871;SDS011;36154;51.674;7.824;2023-12-07T07:48:16;0.90;;;0.90;;
48871;SDS011;36154;51.674;7.824;2023-12-07T07:50:41;0.80;;;0.80;;
48871;SDS011;36154;51.674;7.824;2023-12-07T07:53:06;1.05;;;1.00;;
48871;SDS011;36154;51.674;7.824;2023-12-07T07:55:31;1.17;;;1.08;;
48871;SDS011;36154;51.674;7.824;2023-12-07T07:57:57;1.10;;;1.10;;
48871;SDS011;36154;51.674;7.824;2023-12-07T08:00:22;0.80;;;0.80;;
48871;SDS011;36154;51.674;7.824;2023-12-07T08:02:50;0.80;;;0.80;;
48871;SDS011;36154;51.674;7.824;2023-12-07T08:05:16;0.98;;;0.98;;
48871;SDS011;36154;51.674;7.824;2023-12-07T08:07:41;0.90;;;0.90;;
48871;SDS011;36154;51.674;7.824;2023-12-07T08:10:07;0.80;;;0.80;;
48871;SDS011;36154;51.674;7.824;2023-12-07T08:12:33;0.50;;;0.50;;
48871;SDS011;36154;51.674;7.824;2023-12-07T08:14:59;0.65;;;0.60;;
48871;SDS011;36154;51.674;7.824;2023-12-07T08:17:24;0.77;;;0.77;;
48871;SDS011;36154;51.674;7.824;2023-12-07T08:19:51;0.70;;;0.70;;
48871;SDS011;36154;51.674;7.824;2023-12-07T08:22:16;0.60;;;0.60;;
48871;SDS011;36154;51.674;7.824;2023-12-07T08:24:41;0.73;;;0.73;;
48871;SDS011;36154;51.674;7.824;2023-12-07T08:27:07;0.60;;;0.60;;
48871;SDS011;36154;51.674;7.824;2023-12-07T08:29:32;0.80;;;0.80;;
48871;SDS011;36154;51.674;7.824;2023-12-07T08:31:57;0.70;;;0.70;;
48871;SDS011;36154;51.674;7.824;2023-12-07T08:34:22;0.83;;;0.83;;
48871;SDS011;36154;51.674;7.824;2023-12-07T08:36:49;0.75;;;0.75;;
48871;SDS011;36154;51.674;7.824;2023-12-07T08:39:14;0.60;;;0.60;;
48871;SDS011;36154;51.674;7.824;2023-12-07T08:41:40;0.70;;;0.70;;
48871;SDS011;36154;51.674;7.824;2023-12-07T08:44:05;0.68;;;0.68;;
48871;SDS011;36154;51.674;7.824;2023-12-07T08:46:30;0.60;;;0.60;;
48871;SDS011;36154;51.674;7.824;2023-12-07T08:48:55;0.50;;;0.50;;
48871;SDS011;36154;51.674;7.824;2023-12-07T08:51:21;0.73;;;0.60;;
48871;SDS011;36154;51.674;7.824;2023-12-07T08:53:46;0.50;;;0.50;;
48871;SDS011;36154;51.674;7.824;2023-12-07T08:56:12;0.80;;;0.80;;
48871;SDS011;36154;51.674;7.824;2023-12-07T08:58:40;0.70;;;0.70;;
48871;SDS011;36154;51.674;7.824;2023-12-07T09:01:06;0.60;;;0.60;;
48871;SDS011;36154;51.674;7.824;2023-12-07T09:03:31;0.43;;;0.43;;
48871;SDS011;36154;51.674;7.824;2023-12-07T09:05:58;0.40;;;0.40;;
48871;SDS011;36154;51.674;7.824;2023-12-07T09:08:24;0.60;;;0.60;;
48871;SDS011;36154;51.674;7.824;2023-12-07T09:10:49;0.60;;;0.60;;
48871;SDS011;36154;51.674;7.824;2023-12-07T09:13:16;0.55;;;0.50;;
48871;SDS011;36154;51.674;7.824;2023-12-07T09:15:42;0.77;;;0.77;;
48871;SDS011;36154;51.674;7.824;2023-12-07T09:18:07;1.75;;;0.60;;
48871;SDS011;36154;51.674;7.824;2023-12-07T09:20:32;0.80;;;0.80;;
48871;SDS011;36154;51.674;7.824;2023-12-07T09:22:58;0.65;;;0.65;;
48871;SDS011;36154;51.674;7.824;2023-12-07T09:25:23;0.70;;;0.70;;
48871;SDS011;36154;51.674;7.824;2023-12-07T09:27:48;0.45;;;0.45;;
48871;SDS011;36154;51.674;7.824;2023-12-07T09:30:14;0.60;;;0.60;;
48871;SDS011;36154;51.674;7.824;2023-12-07T09:32:39;0.57;;;0.57;;
48871;SDS011;36154;51.674;7.824;2023-12-07T09:35:05;0.57;;;0.57;;
48871;SDS011;36154;51.674;7.824;2023-12-07T09:37:32;0.50;;;0.50;;
48871;SDS011;36154;51.674;7.824;2023-12-07T09:39:57;0.68;;;0.68;;
48871;SDS011;36154;51.674;7.824;2023-12-07T09:42:23;0.67;;;0.67;;
48871;SDS011;36154;51.674;7.824;2023-12-07T09:44:48;0.55;;;0.55;;
48871;SDS011;36154;51.674;7.824;2023-12-07T09:47:13;0.50;;;0.50;;
48871;SDS011;36154;51.674;7.824;2023-12-07T09:49:39;0.60;;;0.60;;
48871;SDS011;36154;51.674;7.824;2023-12-07T09:52:05;0.57;;;0.57;;
48871;SDS011;36154;51.674;7.824;2023-12-07T09:54:32;0.60;;;0.60;;
48871;SDS011;36154;51.674;7.824;2023-12-07T09:57:00;0.30;;;0.30;;
48871;SDS011;36154;51.674;7.824;2023-12-07T09:59:25;0.50;;;0.50;;
48871;SDS011;36154;51.674;7.824;2023-12-07T10:01:50;0.52;;;0.52;;
48871;SDS011;36154;51.674;7.824;2023-12-07T10:06:44;0.40;;;0.40;;
48871;SDS011;36154;51.674;7.824;2023-12-07T10:09:13;0.50;;;0.50;;
48871;SDS011;36154;51.674;7.824;2023-12-07T10:11:39;0.47;;;0.47;;
48871;SDS011;36154;51.674;7.824;2023-12-07T10:14:06;0.73;;;0.63;;
48871;SDS011;36154;51.674;7.824;2023-12-07T10:16:32;0.85;;;0.52;;
48871;SDS011;36154;51.674;7.824;2023-12-07T10:19:12;0.40;;;0.40;;
48871;SDS011;36154;51.674;7.824;2023-12-07T10:21:38;0.47;;;0.47;;
48871;SDS011;36154;51.674;7.824;2023-12-07T10:24:04;0.40;;;0.40;;
48871;SDS011;36154;51.674;7.824;2023-12-07T10:26:30;0.30;;;0.30;;
48871;SDS011;36154;51.674;7.824;2023-12-07T10:28:55;0.50;;;0.50;;
48871;SDS011;36154;51.674;7.824;2023-12-07T10:31:21;0.40;;;0.40;;
48871;SDS011;36154;51.674;7.824;2023-12-07T10:33:47;0.57;;;0.57;;
48871;SDS011;36154;51.674;7.824;2023-12-07T10:36:14;0.57;;;0.57;;
48871;SDS011;36154;51.674;7.824;2023-12-07T10:38:39;0.50;;;0.50;;
48871;SDS011;36154;51.674;7.824;2023-12-07T10:41:07;0.40;;;0.40;;
48871;SDS011;36154;51.674;7.824;2023-12-07T10:43:37;0.55;;;0.40;;
48871;SDS011;36154;51.674;7.824;2023-12-07T10:46:07;0.30;;;0.30;;
48871;SDS011;36154;51.674;7.824;2023-12-07T10:48:34;0.40;;;0.40;;
48871;SDS011;36154;51.674;7.824;2023-12-07T10:51:00;0.35;;;0.35;;
48871;SDS011;36154;51.674;7.824;2023-12-07T10:53:32;0.60;;;0.60;;
48871;SDS011;36154;51.674;7.824;2023-12-07T10:56:05;0.65;;;0.55;;
48871;SDS011;36154;51.674;7.824;2023-12-07T10:58:36;0.40;;;0.40;;
48871;SDS011;36154;51.674;7.824;2023-12-07T11:01:03;0.40;;;0.40;;
48871;SDS011;36154;51.674;7.824;2023-12-07T11:03:29;0.77;;;0.77;;
48871;SDS011;36154;51.674;7.824;2023-12-07T11:05:55;0.47;;;0.47;;
48871;SDS011;36154;51.674;7.824;2023-12-07T11:08:22;0.57;;;0.57;;
48871;SDS011;36154;51.674;7.824;2023-12-07T11:11:15;0.40;;;0.40;;
48871;SDS011;36154;51.674;7.824;2023-12-07T11:13:58;0.38;;;0.38;;
48871;SDS011;36154;51.674;7.824;2023-12-07T11:16:37;0.40;;;0.40;;
48871;SDS011;36154;51.674;7.824;2023-12-07T11:19:51;0.50;;;0.50;;
48871;SDS011;36154;51.674;7.824;2023-12-07T11:21:55;0.35;;;0.35;;
48871;SDS011;36154;51.674;7.824;2023-12-07T11:24:21;0.50;;;0.50;;
48871;SDS011;36154;51.674;7.824;2023-12-07T11:26:48;0.52;;;0.52;;
48871;SDS011;36154;51.674;7.824;2023-12-07T11:29:13;0.60;;;0.60;;
48871;SDS011;36154;51.674;7.824;2023-12-07T11:31:38;0.40;;;0.40;;
48871;SDS011;36154;51.674;7.824;2023-12-07T11:34:07;0.40;;;0.40;;
48871;SDS011;36154;51.674;7.824;2023-12-07T11:36:38;0.50;;;0.50;;
48871;SDS011;36154;51.674;7.824;2023-12-07T11:41:34;0.30;;;0.30;;
48871;SDS011;36154;51.674;7.824;2023-12-07T11:44:08;0.43;;;0.43;;
48871;SDS011;36154;51.674;7.824;2023-12-07T11:46:34;0.30;;;0.30;;
48871;SDS011;36154;51.674;7.824;2023-12-07T11:49:00;0.30;;;0.30;;
48871;SDS011;36154;51.674;7.824;2023-12-07T11:51:26;0.52;;;0.52;;
48871;SDS011;36154;51.674;7.824;2023-12-07T11:53:54;0.50;;;0.50;;
48871;SDS011;36154;51.674;7.824;2023-12-07T11:56:19;0.38;;;0.38;;
48871;SDS011;36154;51.674;7.824;2023-12-07T11:58:46;0.30;;;0.30;;
48871;SDS011;36154;51.674;7.824;2023-12-07T12:01:12;0.40;;;0.40;;
48871;SDS011;36154;51.674;7.824;2023-12-07T12:03:38;0.43;;;0.43;;
48871;SDS011;36154;51.674;7.824;2023-12-07T12:06:04;0.60;;;0.60;;
48871;SDS011;36154;51.674;7.824;2023-12-07T12:08:32;0.40;;;0.40;;
48871;SDS011;36154;51.674;7.824;2023-12-07T12:10:58;0.40;;;0.40;;
48871;SDS011;36154;51.674;7.824;2023-12-07T12:13:27;0.35;;;0.35;;
48871;SDS011;36154;51.674;7.824;2023-12-07T12:15:54;0.50;;;0.50;;
48871;SDS011;36154;51.674;7.824;2023-12-07T12:18:21;0.45;;;0.45;;
48871;SDS011;36154;51.674;7.824;2023-12-07T12:20:46;0.50;;;0.50;;
48871;SDS011;36154;51.674;7.824;2023-12-07T12:23:11;0.68;;;0.68;;
48871;SDS011;36154;51.674;7.824;2023-12-07T12:25:37;1.27;;;0.65;;
48871;SDS011;36154;51.674;7.824;2023-12-07T12:28:03;0.80;;;0.80;;
48871;SDS011;36154;51.674;7.824;2023-12-07T12:30:30;0.80;;;0.80;;
48871;SDS011;36154;51.674;7.824;2023-12-07T12:32:56;0.60;;;0.60;;
48871;SDS011;36154;51.674;7.824;2023-12-07T12:35:22;1.30;;;0.63;;
48871;SDS011;36154;51.674;7.824;2023-12-07T12:37:49;0.73;;;0.60;;
48871;SDS011;36154;51.674;7.824;2023-12-07T12:40:15;0.95;;;0.93;;
48871;SDS011;36154;51.674;7.824;2023-12-07T12:42:51;0.85;;;0.85;;
48871;SDS011;36154;51.674;7.824;2023-12-07T12:45:18;1.17;;;0.90;;
48871;SDS011;36154;51.674;7.824;2023-12-07T12:47:44;0.57;;;0.57;;
48871;SDS011;36154;51.674;7.824;2023-12-07T12:50:11;0.95;;;0.70;;
48871;SDS011;36154;51.674;7.824;2023-12-07T12:52:57;0.80;;;0.80;;
48871;SDS011;36154;51.674;7.824;2023-12-07T12:55:25;0.77;;;0.77;;
48871;SDS011;36154;51.674;7.824;2023-12-07T12:57:50;0.70;;;0.70;;
48871;SDS011;36154;51.674;7.824;2023-12-07T13:00:16;0.50;;;0.50;;
48871;SDS011;36154;51.674;7.824;2023-12-07T13:02:41;0.70;;;0.70;;
48871;SDS011;36154;51.674;7.824;2023-12-07T13:05:07;0.50;;;0.50;;
48871;SDS011;36154;51.674;7.824;2023-12-07T13:07:32;0.80;;;0.70;;
48871;SDS011;36154;51.674;7.824;2023-12-07T13:09:57;0.40;;;0.40;;
48871;SDS011;36154;51.674;7.824;2023-12-07T13:12:23;0.80;;;0.80;;
48871;SDS011;36154;51.674;7.824;2023-12-07T13:14:48;0.55;;;0.52;;
48871;SDS011;36154;51.674;7.824;2023-12-07T13:17:14;0.82;;;0.82;;
48871;SDS011;36154;51.674;7.824;2023-12-07T13:19:39;1.08;;;0.65;;
48871;SDS011;36154;51.674;7.824;2023-12-07T13:22:04;0.80;;;0.80;;
48871;SDS011;36154;51.674;7.824;2023-12-07T13:24:29;1.33;;;0.52;;
48871;SDS011;36154;51.674;7.824;2023-12-07T13:26:55;2.45;;;0.80;;
48871;SDS011;36154;51.674;7.824;2023-12-07T13:29:22;2.95;;;0.80;;
48871;SDS011;36154;51.674;7.824;2023-12-07T13:31:48;1.02;;;0.55;;
48871;SDS011;36154;51.674;7.824;2023-12-07T13:34:14;0.80;;;0.80;;
48871;SDS011;36154;51.674;7.824;2023-12-07T13:36:40;1.10;;;0.90;;
48871;SDS011;36154;51.674;7.824;2023-12-07T13:39:05;0.85;;;0.50;;
48871;SDS011;36154;51.674;7.824;2023-12-07T13:41:30;3.05;;;1.10;;
48871;SDS011;36154;51.674;7.824;2023-12-07T13:43:55;3.53;;;1.35;;
48871;SDS011;36154;51.674;7.824;2023-12-07T13:46:21;2.15;;;0.98;;
48871;SDS011;36154;51.674;7.824;2023-12-07T13:48:46;16.77;;;6.60;;
48871;SDS011;36154;51.674;7.824;2023-12-07T13:51:12;15.60;;;6.60;;
48871;SDS011;36154;51.674;7.824;2023-12-07T13:53:37;18.60;;;6.43;;
48871;SDS011;36154;51.674;7.824;2023-12-07T13:56:03;5.45;;;4.90;;
48871;SDS011;36154;51.674;7.824;2023-12-07T13:58:29;8.02;;;4.90;;
48871;SDS011;36154;51.674;7.824;2023-12-07T14:00:55;7.25;;;5.03;;
48871;SDS011;36154;51.674;7.824;2023-12-07T14:03:20;4.88;;;4.10;;
48871;SDS011;36154;51.674;7.824;2023-12-07T14:05:46;5.63;;;3.67;;
48871;SDS011;36154;51.674;7.824;2023-12-07T14:08:12;6.28;;;3.28;;
48871;SDS011;36154;51.674;7.824;2023-12-07T14:10:37;4.70;;;2.88;;
48871;SDS011;36154;51.674;7.824;2023-12-07T14:13:03;3.70;;;2.58;;
48871;SDS011;36154;51.674;7.824;2023-12-07T14:15:28;3.90;;;2.20;;
48871;SDS011;36154;51.674;7.824;2023-12-07T14:17:54;4.20;;;2.20;;
48871;SDS011;36154;51.674;7.824;2023-12-07T14:20:19;4.18;;;2.30;;
48871;SDS011;36154;51.674;7.824;2023-12-07T14:22:46;12.07;;;2.80;;
48871;SDS011;36154;51.674;7.824;2023-12-07T14:25:11;5.57;;;2.47;;
48871;SDS011;36154;51.674;7.824;2023-12-07T14:27:36;2.90;;;2.10;;
48871;SDS011;36154;51.674;7.824;2023-12-07T14:30:02;2.97;;;2.10;;
48871;SDS011;36154;51.674;7.824;2023-12-07T14:32:27;4.15;;;2.20;;
48871;SDS011;36154;51.674;7.824;2023-12-07T14:34:54;2.60;;;2.00;;
48871;SDS011;36154;51.674;7.824;2023-12-07T14:37:20;4.03;;;2.17;;
48871;SDS011;36154;51.674;7.824;2023-12-07T14:39:45;3.95;;;2.00;;
48871;SDS011;36154;51.674;7.824;2023-12-07T14:42:11;1.70;;;1.60;;
48871;SDS011;36154;51.674;7.824;2023-12-07T14:44:36;3.45;;;1.73;;
48871;SDS011;36154;51.674;7.824;2023-12-07T14:47:01;4.70;;;1.75;;